createdAt,value
2018-12-16T00:01:57.355Z,82.08
2018-12-16T00:04:25.639Z,82.12
2018-12-16T00:06:53.979Z,82.09
2018-12-16T00:09:22.319Z,82.09
2018-12-16T00:11:50.637Z,82.13
2018-12-16T00:14:18.983Z,82.08
2018-12-16T00:16:47.331Z,81.97
2018-12-16T00:19:15.670Z,81.80
2018-12-16T00:21:43.997Z,81.71
2018-12-16T00:24:12.517Z,81.53
2018-12-16T00:26:52.666Z,81.51
2018-12-16T00:29:21.045Z,81.51
2018-12-16T00:31:49.400Z,81.74
2018-12-16T00:34:17.741Z,81.88
2018-12-16T00:36:46.082Z,82.07
2018-12-16T00:39:14.415Z,82.16
2018-12-16T00:41:42.758Z,82.23
2018-12-16T00:44:11.111Z,82.42
2018-12-16T00:46:39.449Z,82.17
2018-12-16T00:49:07.789Z,82.06
2018-12-16T00:51:36.131Z,82.17
2018-12-16T00:54:04.487Z,82.19
2018-12-16T00:56:32.830Z,82.23
2018-12-16T00:59:01.176Z,82.16
2018-12-16T01:01:29.502Z,82.23
2018-12-16T01:03:57.861Z,82.09
2018-12-16T01:06:26.785Z,82.07
2018-12-16T01:09:02.615Z,82.15
2018-12-16T01:11:30.943Z,82.20
2018-12-16T01:13:59.309Z,82.39
2018-12-16T01:16:27.686Z,82.39
2018-12-16T01:18:56.038Z,82.60
2018-12-16T01:21:24.374Z,82.73
2018-12-16T01:23:52.720Z,82.56
2018-12-16T01:26:21.072Z,82.71
2018-12-16T01:28:49.404Z,82.95
2018-12-16T01:31:17.742Z,82.78
2018-12-16T01:33:46.089Z,82.85
2018-12-16T01:36:14.410Z,82.74
2018-12-16T01:38:42.988Z,82.53
2018-12-16T01:41:11.128Z,82.83
2018-12-16T01:43:39.457Z,83.07
2018-12-16T01:46:07.796Z,83.17
2018-12-16T01:48:36.169Z,83.05
2018-12-16T01:51:04.503Z,83.34
2018-12-16T01:53:32.871Z,83.33
2018-12-16T01:56:01.221Z,83.27
2018-12-16T01:58:29.574Z,83.21
2018-12-16T02:00:57.925Z,83.49
2018-12-16T02:03:26.273Z,83.42
2018-12-16T02:05:54.619Z,83.11
2018-12-16T02:08:23.179Z,83.22
2018-12-16T02:10:51.290Z,83.53
2018-12-16T02:13:19.628Z,83.50
2018-12-16T02:15:48.015Z,83.43
2018-12-16T02:18:16.384Z,82.97
2018-12-16T02:20:44.718Z,82.80
2018-12-16T02:23:13.075Z,82.88
2018-12-16T02:25:41.417Z,82.72
2018-12-16T02:28:09.746Z,82.97
2018-12-16T02:30:38.100Z,82.86
2018-12-16T02:33:06.432Z,82.64
2018-12-16T02:35:34.776Z,82.60
2018-12-16T02:38:03.346Z,82.54
2018-12-16T02:40:31.450Z,82.69
2018-12-16T02:42:59.825Z,82.60
2018-12-16T02:45:28.148Z,82.61
2018-12-16T02:47:56.492Z,82.55
2018-12-16T02:50:24.856Z,82.54
2018-12-16T02:52:53.412Z,82.49
2018-12-16T02:55:21.537Z,82.38
2018-12-16T02:57:49.877Z,82.17
2018-12-16T03:00:18.309Z,82.17
2018-12-16T03:02:46.596Z,82.18
2018-12-16T03:05:14.917Z,82.16
2018-12-16T03:07:43.280Z,82.10
2018-12-16T03:10:12.597Z,82.02
2018-12-16T03:12:40.969Z,82.00
2018-12-16T03:15:09.310Z,81.95
2018-12-16T03:17:37.661Z,81.96
2018-12-16T03:20:05.997Z,81.68
2018-12-16T03:22:34.343Z,81.41
2018-12-16T03:25:02.678Z,81.45
2018-12-16T03:27:31.018Z,81.42
2018-12-16T03:29:59.359Z,81.47
2018-12-16T03:32:27.697Z,81.54
2018-12-16T03:34:56.060Z,81.62
2018-12-16T03:37:24.379Z,81.59
2018-12-16T03:39:52.724Z,81.62
2018-12-16T03:42:21.058Z,81.58
2018-12-16T03:44:49.400Z,81.70
2018-12-16T03:47:17.738Z,81.73
2018-12-16T03:49:46.071Z,81.65
2018-12-16T03:52:14.440Z,81.69
2018-12-16T03:54:42.773Z,81.70
2018-12-16T03:57:11.121Z,81.85
2018-12-16T03:59:39.443Z,81.83
2018-12-16T04:02:07.774Z,81.99
2018-12-16T04:04:36.102Z,82.05
2018-12-16T04:07:04.433Z,82.28
2018-12-16T04:09:32.787Z,82.08
2018-12-16T04:12:01.132Z,82.25
2018-12-16T04:14:29.477Z,82.54
2018-12-16T04:16:57.877Z,82.52
2018-12-16T04:19:26.139Z,82.64
2018-12-16T04:21:54.694Z,82.78
2018-12-16T04:24:22.808Z,82.78
2018-12-16T04:26:51.147Z,82.86
2018-12-16T04:29:19.492Z,82.87
2018-12-16T04:31:48.055Z,82.98
2018-12-16T04:34:16.145Z,83.01
2018-12-16T04:36:44.497Z,82.94
2018-12-16T04:39:12.839Z,83.02
2018-12-16T04:41:41.175Z,83.19
2018-12-16T04:44:09.513Z,83.29
2018-12-16T04:46:37.836Z,83.37
2018-12-16T04:49:06.182Z,83.40
2018-12-16T04:51:34.509Z,83.64
2018-12-16T04:54:02.881Z,83.76
2018-12-16T04:56:31.225Z,83.78
2018-12-16T04:58:59.546Z,83.86
2018-12-16T05:01:28.104Z,83.95
2018-12-16T05:03:56.227Z,83.82
2018-12-16T05:06:24.554Z,83.92
2018-12-16T05:08:52.887Z,83.79
2018-12-16T05:11:21.243Z,83.88
2018-12-16T05:13:49.590Z,84.40
2018-12-16T05:16:17.949Z,84.31
2018-12-16T05:18:46.308Z,84.44
2018-12-16T05:21:14.675Z,84.44
2018-12-16T05:23:43.004Z,84.53
2018-12-16T05:26:11.434Z,84.45
2018-12-16T05:28:39.667Z,84.02
2018-12-16T05:31:08.045Z,83.79
2018-12-16T05:33:36.377Z,83.94
2018-12-16T05:36:04.732Z,83.64
2018-12-16T05:38:33.050Z,83.65
2018-12-16T05:41:01.416Z,83.61
2018-12-16T05:43:29.772Z,83.82
2018-12-16T05:45:58.101Z,83.89
2018-12-16T05:48:26.432Z,83.72
2018-12-16T05:50:54.766Z,83.80
2018-12-16T05:53:23.113Z,83.86
2018-12-16T05:55:51.483Z,83.63
2018-12-16T05:58:19.827Z,83.64
2018-12-16T06:00:48.155Z,83.91
2018-12-16T06:03:16.483Z,83.58
2018-12-16T06:05:44.822Z,83.74
2018-12-16T06:08:13.160Z,83.87
2018-12-16T06:10:41.479Z,83.81
2018-12-16T06:13:09.815Z,83.85
2018-12-16T06:15:38.153Z,83.70
2018-12-16T06:18:06.502Z,83.64
2018-12-16T06:20:34.828Z,83.70
2018-12-16T06:23:03.171Z,83.59
2018-12-16T06:25:31.515Z,83.70
2018-12-16T06:27:59.843Z,84.00
2018-12-16T06:30:28.181Z,83.99
2018-12-16T06:32:56.504Z,83.88
2018-12-16T06:35:24.834Z,83.99
2018-12-16T06:37:53.745Z,84.21
2018-12-16T06:40:21.881Z,84.12
2018-12-16T06:42:50.459Z,84.29
2018-12-16T06:45:18.795Z,84.38
2018-12-16T06:47:46.893Z,84.17
2018-12-16T06:50:15.226Z,84.30
2018-12-16T06:52:43.538Z,84.27
2018-12-16T06:55:11.871Z,84.52
2018-12-16T06:57:40.226Z,84.55
2018-12-16T07:00:08.585Z,84.51
2018-12-16T07:02:36.929Z,84.45
2018-12-16T07:05:05.263Z,84.20
2018-12-16T07:07:33.603Z,84.11
2018-12-16T07:10:01.934Z,84.37
2018-12-16T07:12:30.269Z,84.53
2018-12-16T07:14:58.635Z,84.49
2018-12-16T07:17:27.014Z,84.29
2018-12-16T07:19:55.346Z,84.36
2018-12-16T07:22:23.671Z,84.52
2018-12-16T07:24:52.034Z,84.49
2018-12-16T07:27:20.336Z,84.54
2018-12-16T07:29:48.717Z,84.64
2018-12-16T07:32:17.070Z,84.72
2018-12-16T07:34:45.399Z,84.69
2018-12-16T07:37:18.986Z,84.73
2018-12-16T07:39:42.047Z,84.91
2018-12-16T07:42:10.429Z,84.60
2018-12-16T07:44:38.786Z,84.85
2018-12-16T07:47:07.348Z,84.74
2018-12-16T07:49:35.661Z,84.97
2018-12-16T07:52:03.992Z,85.08
2018-12-16T07:54:32.330Z,85.05
2018-12-16T07:57:00.675Z,84.91
2018-12-16T07:59:29.033Z,84.90
2018-12-16T08:01:57.382Z,84.82
2018-12-16T08:04:25.712Z,84.79
2018-12-16T08:06:54.028Z,84.85
2018-12-16T08:09:22.359Z,84.70
2018-12-16T08:11:50.929Z,84.74
2018-12-16T08:14:19.285Z,84.76
2018-12-16T08:16:47.797Z,84.69
2018-12-16T08:19:16.125Z,84.72
2018-12-16T08:21:44.448Z,84.73
2018-12-16T08:24:12.787Z,84.80
2018-12-16T08:26:41.192Z,85.05
2018-12-16T08:29:09.571Z,84.84
2018-12-16T08:31:37.976Z,84.75
2018-12-16T08:34:06.344Z,84.93
2018-12-16T08:36:34.738Z,84.94
2018-12-16T08:39:03.133Z,84.66
2018-12-16T08:41:31.449Z,84.70
2018-12-16T08:43:59.776Z,85.02
2018-12-16T08:46:28.117Z,85.16
2018-12-16T08:48:56.466Z,85.50
2018-12-16T08:51:24.801Z,85.30
2018-12-16T08:53:53.166Z,85.51
2018-12-16T08:56:21.517Z,85.50
2018-12-16T08:58:49.887Z,85.11
2018-12-16T09:01:18.540Z,85.25
2018-12-16T09:03:47.145Z,85.35
2018-12-16T09:06:15.529Z,85.62
2018-12-16T09:08:44.198Z,85.39
2018-12-16T09:11:12.575Z,85.05
2018-12-16T09:13:41.239Z,85.04
2018-12-16T09:16:10.115Z,85.24
2018-12-16T09:18:38.517Z,85.21
2018-12-16T09:21:06.895Z,85.10
2018-12-16T09:23:36.160Z,85.00
2018-12-16T09:26:04.787Z,84.91
2018-12-16T09:28:33.134Z,84.82
2018-12-16T09:31:02.677Z,84.89
2018-12-16T09:33:31.057Z,84.70
2018-12-16T09:35:59.411Z,84.70
2018-12-16T09:38:27.762Z,84.60
2018-12-16T09:40:57.000Z,84.60
2018-12-16T09:43:25.362Z,84.27
2018-12-16T09:45:53.745Z,84.61
2018-12-16T09:48:22.172Z,84.86
2018-12-16T09:50:50.670Z,84.71
2018-12-16T09:53:19.019Z,84.63
2018-12-16T09:55:47.121Z,84.60
2018-12-16T09:58:15.470Z,84.51
2018-12-16T10:00:43.829Z,84.23
2018-12-16T10:03:12.196Z,84.39
2018-12-16T10:05:40.777Z,84.25
2018-12-16T10:08:08.914Z,83.95
2018-12-16T10:10:37.278Z,83.40
2018-12-16T10:13:05.836Z,83.45
2018-12-16T10:15:34.180Z,82.89
2018-12-16T10:18:02.525Z,82.89
2018-12-16T10:20:30.856Z,83.15
2018-12-16T10:23:00.084Z,83.00
2018-12-16T10:25:28.450Z,82.87
2018-12-16T10:27:56.816Z,82.55
2018-12-16T10:30:25.150Z,82.61
2018-12-16T10:32:53.497Z,82.33
2018-12-16T10:35:22.764Z,82.61
2018-12-16T10:37:51.112Z,82.78
2018-12-16T10:40:19.458Z,82.51
2018-12-16T10:42:47.794Z,82.49
2018-12-16T10:45:16.134Z,82.51
2018-12-16T10:47:44.475Z,82.57
2018-12-16T10:50:12.819Z,82.30
2018-12-16T10:52:41.168Z,82.13
2018-12-16T10:55:09.495Z,82.50
2018-12-16T10:57:37.860Z,82.87
2018-12-16T11:00:09.032Z,82.90
2018-12-16T11:02:37.353Z,82.84
2018-12-16T11:05:05.747Z,82.92
2018-12-16T11:07:34.100Z,82.67
2018-12-16T11:10:02.432Z,82.88
2018-12-16T11:12:30.779Z,82.86
2018-12-16T11:14:59.113Z,82.32
2018-12-16T11:17:27.702Z,82.60
2018-12-16T11:19:56.032Z,82.94
2018-12-16T11:22:24.384Z,82.63
2018-12-16T11:24:52.487Z,82.25
2018-12-16T11:27:20.909Z,82.31
2018-12-16T11:29:49.259Z,82.58
2018-12-16T11:32:17.594Z,82.57
2018-12-16T11:34:45.931Z,82.36
2018-12-16T11:37:14.284Z,82.09
2018-12-16T11:39:42.618Z,81.54
2018-12-16T11:42:10.942Z,81.58
2018-12-16T11:44:39.283Z,82.06
2018-12-16T11:47:07.632Z,81.72
2018-12-16T11:49:36.290Z,81.48
2018-12-16T11:52:04.736Z,81.61
2018-12-16T11:54:33.147Z,81.74
2018-12-16T11:57:01.481Z,81.81
2018-12-16T11:59:29.867Z,81.94
2018-12-16T12:01:58.219Z,81.87
2018-12-16T12:04:27.286Z,81.67
2018-12-16T12:06:55.945Z,81.82
2018-12-16T12:09:24.301Z,81.87
2018-12-16T12:11:52.672Z,81.66
2018-12-16T12:14:21.031Z,81.89
2018-12-16T12:16:49.364Z,81.86
2018-12-16T12:19:17.745Z,82.10
2018-12-16T12:21:46.083Z,82.16
2018-12-16T12:24:14.467Z,82.02
2018-12-16T12:26:42.843Z,82.23
2018-12-16T12:29:11.219Z,82.24
2018-12-16T12:31:39.569Z,82.09
2018-12-16T12:34:08.378Z,82.19
2018-12-16T12:36:36.694Z,82.22
2018-12-16T12:39:05.027Z,82.24
2018-12-16T12:41:33.369Z,82.03
2018-12-16T12:44:01.777Z,82.27
2018-12-16T12:46:30.315Z,82.57
2018-12-16T12:48:58.654Z,82.68
2018-12-16T12:51:27.033Z,82.75
2018-12-16T12:53:55.354Z,82.43
2018-12-16T12:56:23.689Z,82.43
2018-12-16T12:58:52.144Z,82.51
2018-12-16T13:01:20.477Z,82.37
2018-12-16T13:03:48.813Z,82.51
2018-12-16T13:06:17.150Z,82.45
2018-12-16T13:08:46.389Z,82.22
2018-12-16T13:11:15.089Z,82.36
2018-12-16T13:13:43.480Z,81.83
2018-12-16T13:16:14.272Z,81.82
2018-12-16T13:18:43.139Z,81.76
2018-12-16T13:21:12.425Z,81.84
2018-12-16T13:23:44.853Z,81.51
2018-12-16T13:26:14.433Z,81.45
2018-12-16T13:28:42.723Z,81.82
2018-12-16T13:31:11.082Z,81.76
2018-12-16T13:33:39.431Z,81.91
2018-12-16T13:36:07.817Z,81.95
2018-12-16T13:38:36.196Z,81.82
2018-12-16T13:41:04.608Z,82.05
2018-12-16T13:43:32.946Z,82.05
2018-12-16T13:46:01.304Z,82.05
2018-12-16T13:48:29.702Z,82.25
2018-12-16T13:50:58.055Z,82.82
2018-12-16T13:53:28.147Z,82.79
2018-12-16T13:55:56.819Z,82.98
2018-12-16T13:58:25.174Z,82.96
2018-12-16T14:00:54.896Z,83.09
2018-12-16T14:03:23.571Z,83.32
2018-12-16T14:05:51.977Z,83.30
2018-12-16T14:08:20.320Z,83.20
2018-12-16T14:10:48.933Z,83.28
2018-12-16T14:13:17.307Z,83.23
2018-12-16T14:15:52.160Z,83.28
2018-12-16T14:18:14.052Z,83.20
2018-12-16T14:20:43.342Z,82.99
2018-12-16T14:23:11.688Z,82.85
2018-12-16T14:25:40.086Z,83.01
2018-12-16T14:28:08.417Z,82.80
2018-12-16T14:30:36.754Z,82.83
2018-12-16T14:33:05.984Z,82.59
2018-12-16T14:35:34.569Z,82.77
2018-12-16T14:38:12.576Z,82.86
2018-12-16T14:43:37.390Z,83.06
2018-12-16T14:46:05.823Z,83.35
2018-12-16T14:48:34.164Z,83.04
2018-12-16T14:51:02.741Z,83.10
2018-12-16T14:53:30.857Z,83.57
2018-12-16T14:55:59.433Z,83.43
2018-12-16T14:58:27.582Z,83.28
2018-12-16T15:00:55.891Z,83.29
2018-12-16T15:03:24.243Z,82.97
2018-12-16T15:05:52.741Z,83.38
2018-12-16T15:08:21.162Z,83.66
2018-12-16T15:10:49.525Z,83.53
2018-12-16T15:13:17.879Z,83.78
2018-12-16T15:15:46.220Z,83.70
2018-12-16T15:18:14.557Z,83.87
2018-12-16T15:20:43.123Z,83.65
2018-12-16T15:23:11.244Z,83.62
2018-12-16T15:25:39.591Z,83.65
2018-12-16T15:28:07.935Z,83.66
2018-12-16T15:30:36.267Z,83.62
2018-12-16T15:33:05.223Z,83.37
2018-12-16T15:35:33.551Z,83.35
2018-12-16T15:38:01.889Z,83.43
2018-12-16T15:40:30.241Z,83.58
2018-12-16T15:42:58.589Z,83.68
2018-12-16T15:45:26.939Z,83.81
2018-12-16T15:47:55.275Z,83.77
2018-12-16T15:50:24.009Z,83.27
2018-12-16T15:52:52.336Z,83.33
2018-12-16T15:55:20.697Z,83.39
2018-12-16T15:57:49.047Z,83.39
2018-12-16T16:00:17.609Z,83.28
2018-12-16T16:02:45.730Z,83.16
2018-12-16T16:05:14.060Z,83.17
2018-12-16T16:07:42.406Z,83.07
2018-12-16T16:10:10.766Z,83.34
2018-12-16T16:12:43.240Z,83.30
2018-12-16T16:15:10.692Z,83.35
2018-12-16T16:17:39.924Z,83.42
2018-12-16T16:20:07.553Z,83.20
2018-12-16T16:22:38.881Z,82.98
2018-12-16T16:25:06.963Z,82.87
2018-12-16T16:27:34.939Z,82.89
2018-12-16T16:30:03.254Z,82.91
2018-12-16T16:32:31.542Z,83.23
2018-12-16T16:34:59.880Z,83.08
2018-12-16T16:37:28.238Z,82.90
2018-12-16T16:39:56.570Z,83.10
2018-12-16T16:42:24.914Z,82.85
2018-12-16T16:44:53.271Z,83.14
2018-12-16T16:47:21.613Z,82.78
2018-12-16T16:49:49.970Z,82.80
2018-12-16T16:52:18.613Z,82.63
2018-12-16T16:54:46.951Z,82.49
2018-12-16T16:57:15.303Z,82.57
2018-12-16T16:59:43.639Z,82.63
2018-12-16T17:02:11.972Z,82.39
2018-12-16T17:04:40.342Z,82.25
2018-12-16T17:07:08.685Z,82.55
2018-12-16T17:09:37.018Z,82.69
2018-12-16T17:12:05.377Z,82.48
2018-12-16T17:14:33.768Z,82.44
2018-12-16T17:17:02.120Z,82.28
2018-12-16T17:19:30.466Z,82.22
2018-12-16T17:21:58.810Z,82.28
2018-12-16T17:24:27.168Z,82.29
2018-12-16T17:26:55.554Z,82.25
2018-12-16T17:29:23.915Z,82.40
2018-12-16T17:31:52.239Z,82.29
2018-12-16T17:34:20.607Z,82.04
2018-12-16T17:36:48.964Z,81.86
2018-12-16T17:39:17.311Z,81.92
2018-12-16T17:41:45.652Z,81.94
2018-12-16T17:44:14.006Z,82.14
2018-12-16T17:46:42.680Z,82.03
2018-12-16T17:49:11.017Z,82.14
2018-12-16T17:51:39.483Z,82.38
2018-12-16T17:54:08.054Z,82.45
2018-12-16T17:56:37.211Z,82.47
2018-12-16T17:59:04.528Z,82.02
2018-12-16T18:01:32.868Z,81.87
2018-12-16T18:04:01.238Z,81.91
2018-12-16T18:06:29.584Z,81.99
2018-12-16T18:08:57.928Z,82.03
2018-12-16T18:11:26.264Z,82.13
2018-12-16T18:13:55.639Z,81.97
2018-12-16T18:16:24.019Z,82.03
2018-12-16T18:18:52.830Z,81.88
2018-12-16T18:21:21.414Z,81.83
2018-12-16T18:23:48.953Z,81.92
2018-12-16T18:26:17.919Z,81.92
2018-12-16T18:28:46.401Z,81.83
2018-12-16T18:31:14.813Z,81.87
2018-12-16T18:33:43.101Z,81.95
2018-12-16T18:36:11.460Z,81.73
2018-12-16T18:38:39.902Z,81.78
2018-12-16T18:41:08.388Z,81.95
2018-12-16T18:43:36.983Z,81.80
2018-12-16T18:46:05.443Z,81.84
2018-12-16T18:48:34.180Z,81.96
2018-12-16T18:51:02.753Z,82.01
2018-12-16T18:53:30.884Z,81.97
2018-12-16T18:55:59.211Z,81.53
2018-12-16T18:58:27.556Z,81.58
2018-12-16T19:00:56.271Z,81.55
2018-12-16T19:03:24.615Z,81.75
2018-12-16T19:05:52.942Z,81.78
2018-12-16T19:08:21.378Z,81.70
2018-12-16T19:10:49.722Z,81.68
2018-12-16T19:13:18.069Z,81.75
2018-12-16T19:15:46.403Z,81.77
2018-12-16T19:18:14.778Z,81.97
2018-12-16T19:20:43.126Z,81.78
2018-12-16T19:23:11.482Z,81.92
2018-12-16T19:25:39.803Z,81.84
2018-12-16T19:28:08.140Z,81.71
2018-12-16T19:30:36.700Z,81.69
2018-12-16T19:33:04.815Z,81.83
2018-12-16T19:35:33.857Z,81.73
2018-12-16T19:38:03.316Z,81.82
2018-12-16T19:40:30.817Z,81.89
2018-12-16T19:42:59.154Z,82.09
2018-12-16T19:45:27.488Z,81.99
2018-12-16T19:47:56.108Z,81.95
2018-12-16T19:50:24.552Z,81.90
2018-12-16T19:52:52.876Z,81.85
2018-12-16T19:55:22.026Z,81.86
2018-12-16T19:57:50.383Z,82.11
2018-12-16T20:00:18.750Z,81.85
2018-12-16T20:02:47.109Z,81.71
2018-12-16T20:05:21.127Z,81.71
2018-12-16T20:07:49.722Z,81.78
2018-12-16T20:10:17.830Z,81.94
2018-12-16T20:12:47.081Z,81.97
2018-12-16T20:15:15.493Z,81.97
2018-12-16T20:17:44.590Z,81.93
2018-12-16T20:20:13.272Z,82.10
2018-12-16T20:22:41.409Z,82.36
2018-12-16T20:25:09.775Z,82.24
2018-12-16T20:27:38.135Z,82.27
2018-12-16T20:30:06.552Z,82.39
2018-12-16T20:32:34.915Z,82.19
2018-12-16T20:35:03.232Z,81.92
2018-12-16T20:37:32.392Z,82.05
2018-12-16T20:40:00.965Z,82.16
2018-12-16T20:42:29.083Z,82.25
2018-12-16T20:44:57.407Z,82.23
2018-12-16T20:47:25.740Z,82.42
2018-12-16T20:49:55.580Z,82.38
2018-12-16T20:52:23.984Z,82.41
2018-12-16T20:54:52.315Z,82.55
2018-12-16T20:57:20.865Z,82.60
2018-12-16T20:59:50.696Z,82.52
2018-12-16T21:02:17.370Z,82.56
2018-12-16T21:04:45.700Z,82.62
2018-12-16T21:07:14.045Z,82.66
2018-12-16T21:09:42.416Z,82.53
2018-12-16T21:12:10.755Z,82.88
2018-12-16T21:14:44.626Z,82.60
2018-12-16T21:17:18.527Z,82.66
2018-12-16T21:19:46.869Z,82.60
2018-12-16T21:22:15.507Z,82.63
2018-12-16T21:24:43.833Z,82.64
2018-12-16T21:27:12.301Z,82.57
2018-12-16T21:29:40.711Z,82.74
2018-12-16T21:32:09.154Z,82.82
2018-12-16T21:34:37.697Z,82.62
2018-12-16T21:37:06.340Z,82.59
2018-12-16T21:39:34.852Z,82.48
2018-12-16T21:42:03.225Z,82.51
2018-12-16T21:44:31.556Z,82.50
2018-12-16T21:47:01.969Z,82.61
2018-12-16T21:49:30.449Z,82.48
2018-12-16T21:51:58.838Z,82.53
2018-12-16T21:54:27.197Z,82.37
2018-12-16T21:56:55.510Z,82.42
2018-12-16T21:59:24.787Z,82.41
2018-12-16T22:01:53.142Z,82.54
2018-12-16T22:04:22.393Z,82.31
2018-12-16T22:06:50.727Z,82.30
2018-12-16T22:09:19.060Z,82.28
2018-12-16T22:11:47.401Z,82.22
2018-12-16T22:14:15.879Z,82.30
2018-12-16T22:16:44.491Z,82.41
2018-12-16T22:19:13.271Z,82.29
2018-12-16T22:21:41.610Z,82.37
2018-12-16T22:24:09.952Z,82.40
2018-12-16T22:26:38.487Z,82.26
2018-12-16T22:29:06.851Z,82.26
2018-12-16T22:31:35.319Z,82.16
2018-12-16T22:34:04.002Z,82.17
2018-12-16T22:36:33.001Z,82.10
2018-12-16T22:39:01.545Z,81.93
2018-12-16T22:41:29.792Z,81.98
2018-12-16T22:43:58.180Z,82.02
2018-12-16T22:46:26.580Z,81.76
2018-12-16T22:48:55.074Z,81.70
2018-12-16T22:51:23.855Z,81.81
2018-12-16T22:53:52.084Z,81.66
2018-12-16T22:56:20.750Z,81.77
2018-12-16T22:58:54.346Z,81.72
2018-12-16T23:01:17.512Z,81.81
2018-12-16T23:03:46.019Z,81.67
2018-12-16T23:06:15.157Z,81.70
2018-12-16T23:08:43.505Z,81.61
2018-12-16T23:11:11.863Z,81.44
2018-12-16T23:13:40.196Z,81.40
2018-12-16T23:16:08.545Z,81.29
2018-12-16T23:18:36.890Z,81.33
2018-12-16T23:21:05.231Z,81.53
2018-12-16T23:23:33.547Z,81.46
2018-12-16T23:26:01.900Z,81.42
2018-12-16T23:28:30.237Z,81.19
2018-12-16T23:30:58.578Z,81.37
2018-12-16T23:33:26.899Z,81.46
2018-12-16T23:35:55.237Z,81.50
2018-12-16T23:38:23.565Z,81.29
2018-12-16T23:40:51.888Z,81.12
2018-12-16T23:43:20.237Z,81.07
2018-12-16T23:45:48.585Z,81.21
2018-12-16T23:48:16.912Z,81.31
2018-12-16T23:50:45.258Z,81.29
2018-12-16T23:53:13.579Z,81.23
2018-12-16T23:55:41.912Z,81.16
2018-12-16T23:58:10.242Z,81.03
